createdAt,value
2023-07-18T00:01:19.861Z,99.0
2023-07-18T00:04:20.920Z,99.0
2023-07-18T00:06:21.529Z,99.0
2023-07-18T00:09:22.159Z,99.0
2023-07-18T00:11:22.758Z,99.0
2023-07-18T00:14:23.347Z,99.0
2023-07-18T00:16:24.046Z,99.0
2023-07-18T00:19:24.864Z,99.0
2023-07-18T00:21:25.480Z,99.0
2023-07-18T00:24:26.057Z,99.0
2023-07-18T00:26:26.692Z,99.0
2023-07-18T00:29:27.288Z,99.0
2023-07-18T00:31:27.968Z,99.0
2023-07-18T00:37:28.647Z,99.0
2023-07-18T00:39:29.267Z,99.0
2023-07-18T00:41:29.862Z,99.0
2023-07-18T00:44:30.669Z,99.0
2023-07-18T00:47:31.543Z,99.0
2023-07-18T00:49:32.178Z,99.0
2023-07-18T00:52:32.755Z,99.0
2023-07-18T00:54:33.369Z,99.0
2023-07-18T00:57:34.162Z,99.0
2023-07-18T00:59:34.765Z,99.0
2023-07-18T01:02:35.533Z,99.0
2023-07-18T01:04:36.235Z,99.0
2023-07-18T01:07:37.008Z,99.0
2023-07-18T01:09:37.634Z,99.0
2023-07-18T01:12:38.215Z,99.0
2023-07-18T01:17:38.866Z,99.0
2023-07-18T01:19:39.506Z,99.0
2023-07-18T01:22:40.160Z,99.0
2023-07-18T01:25:40.848Z,99.0
2023-07-18T01:27:41.423Z,99.0
2023-07-18T01:30:42.020Z,99.0
2023-07-18T01:32:42.747Z,99.0
2023-07-18T01:35:43.549Z,99.0
2023-07-18T01:37:44.136Z,99.0
2023-07-18T01:40:44.702Z,99.0
2023-07-18T01:42:45.304Z,99.0
2023-07-18T01:45:45.907Z,99.0
2023-07-18T01:47:46.688Z,99.0
2023-07-18T01:50:47.331Z,99.0
2023-07-18T01:52:47.941Z,99.0
2023-07-18T01:57:54.045Z,99.0
2023-07-18T02:00:54.763Z,99.0
2023-07-18T02:02:55.868Z,99.0
2023-07-18T02:05:56.775Z,99.0
2023-07-18T02:07:57.398Z,99.0
2023-07-18T02:10:58.114Z,99.0
2023-07-18T02:13:58.737Z,99.0
2023-07-18T02:15:59.413Z,99.0
2023-07-18T02:21:00.035Z,99.0
2023-07-18T02:24:00.656Z,99.0
2023-07-18T02:26:01.266Z,99.0
2023-07-18T02:29:01.915Z,99.0
2023-07-18T02:31:02.623Z,99.0
2023-07-18T02:34:03.367Z,99.0
2023-07-18T02:39:03.972Z,99.0
2023-07-18T02:41:04.600Z,99.0
2023-07-18T02:44:05.219Z,99.0
2023-07-18T02:46:05.971Z,99.0
2023-07-18T02:49:06.615Z,99.0
2023-07-18T02:51:07.190Z,99.0
2023-07-18T02:54:07.802Z,99.0
2023-07-18T02:57:08.501Z,99.0
2023-07-18T02:59:09.186Z,99.0
2023-07-18T03:02:10.032Z,99.0
2023-07-18T03:04:10.720Z,99.0
2023-07-18T03:07:11.309Z,99.0
2023-07-18T03:09:11.904Z,99.0
2023-07-18T03:12:13.012Z,99.0
2023-07-18T03:14:13.890Z,99.0
2023-07-18T03:19:14.597Z,99.0
2023-07-18T03:22:15.295Z,99.0
2023-07-18T03:24:15.934Z,99.0
2023-07-18T03:27:16.515Z,99.0
2023-07-18T03:29:17.142Z,99.0
2023-07-18T03:32:17.970Z,99.0
2023-07-18T03:35:18.695Z,99.0
2023-07-18T03:37:19.287Z,99.0
2023-07-18T03:40:19.907Z,99.0
2023-07-18T03:42:20.537Z,99.0
2023-07-18T03:45:21.118Z,99.0
2023-07-18T03:47:22.173Z,99.0
2023-07-18T03:50:22.885Z,99.0
2023-07-18T03:52:23.471Z,99.0
2023-07-18T03:55:24.096Z,99.0
2023-07-18T04:00:24.697Z,99.0
2023-07-18T04:02:25.366Z,99.0
2023-07-18T04:05:26.131Z,99.0
2023-07-18T04:07:26.712Z,99.0
2023-07-18T04:10:27.313Z,99.0
2023-07-18T04:12:27.927Z,99.0
2023-07-18T04:15:28.514Z,99.0
2023-07-18T04:17:29.183Z,99.0
2023-07-18T04:20:29.846Z,99.0
2023-07-18T04:23:30.426Z,99.0
2023-07-18T04:25:31.042Z,99.0
2023-07-18T04:28:31.624Z,99.0
2023-07-18T04:30:32.222Z,99.0
2023-07-18T04:33:32.836Z,99.0
2023-07-18T04:35:33.454Z,99.0
2023-07-18T04:40:34.058Z,99.0
2023-07-18T04:43:34.671Z,99.0
2023-07-18T04:45:36.181Z,99.0
2023-07-18T04:48:36.760Z,99.0
2023-07-18T04:50:37.411Z,99.0
2023-07-18T04:53:38.014Z,99.0
2023-07-18T04:56:38.619Z,99.0
2023-07-18T04:58:39.212Z,99.0
2023-07-18T05:01:39.961Z,99.0
2023-07-18T05:03:58.107Z,99.0
2023-07-18T05:05:59.094Z,99.0
2023-07-18T05:08:59.680Z,99.0
2023-07-18T05:11:00.255Z,99.0
2023-07-18T05:14:00.842Z,99.0
2023-07-18T05:16:01.559Z,99.0
2023-07-18T05:21:02.262Z,99.0
2023-07-18T05:24:02.863Z,99.0
2023-07-18T05:27:03.473Z,99.0
2023-07-18T05:29:04.079Z,99.0
2023-07-18T05:32:04.831Z,99.0
2023-07-18T05:34:05.413Z,99.0
2023-07-18T05:37:06.046Z,99.0
2023-07-18T05:39:06.637Z,99.0
2023-07-18T05:42:07.345Z,0.0
2023-07-18T05:44:07.931Z,0.0
2023-07-18T05:47:08.543Z,4.0
2023-07-18T05:49:09.140Z,8.0
2023-07-18T05:52:09.759Z,24.0
2023-07-18T05:54:10.345Z,31.0
2023-07-18T05:57:10.992Z,35.0
2023-07-18T06:02:11.923Z,39.0
2023-07-18T06:05:12.532Z,43.0
2023-07-18T06:07:13.176Z,44.0
2023-07-18T06:10:13.739Z,44.0
2023-07-18T06:12:14.365Z,44.0
2023-07-18T06:15:14.957Z,47.0
2023-07-18T06:17:15.830Z,47.0
2023-07-18T06:20:16.527Z,48.0
2023-07-18T06:22:17.174Z,47.0
2023-07-18T06:25:17.747Z,47.0
2023-07-18T06:27:18.365Z,47.0
2023-07-18T06:30:18.960Z,48.0
2023-07-18T06:32:19.556Z,48.0
2023-07-18T06:35:24.405Z,48.0
2023-07-18T06:37:25.054Z,49.0
2023-07-18T06:42:25.652Z,49.0
2023-07-18T06:45:26.298Z,49.0
2023-07-18T06:47:26.976Z,49.0
2023-07-18T06:50:27.771Z,48.0
2023-07-18T06:53:28.370Z,48.0
2023-07-18T06:55:28.992Z,48.0
2023-07-18T06:58:29.600Z,48.0
2023-07-18T07:00:30.215Z,47.0
2023-07-18T07:03:31.863Z,47.0
2023-07-18T07:05:32.694Z,47.0
2023-07-18T07:08:33.311Z,48.0
2023-07-18T07:10:33.957Z,47.0
2023-07-18T07:13:34.547Z,47.0
2023-07-18T07:15:35.143Z,47.0
2023-07-18T07:18:35.816Z,46.0
2023-07-18T07:23:36.445Z,47.0
2023-07-18T07:25:37.036Z,46.0
2023-07-18T07:28:37.638Z,47.0
2023-07-18T07:31:38.320Z,47.0
2023-07-18T07:33:39.427Z,47.0
2023-07-18T07:36:40.019Z,45.0
2023-07-18T07:38:40.614Z,45.0
2023-07-18T07:41:41.191Z,44.0
2023-07-18T07:43:41.802Z,44.0
2023-07-18T07:46:42.411Z,44.0
2023-07-18T07:48:43.072Z,44.0
2023-07-18T07:51:43.708Z,44.0
2023-07-18T07:53:44.301Z,43.0
2023-07-18T07:56:44.897Z,43.0
2023-07-18T07:59:05.505Z,43.0
2023-07-18T08:04:13.138Z,44.0
2023-07-18T08:07:14.158Z,43.0
2023-07-18T08:09:14.783Z,43.0
2023-07-18T08:12:15.369Z,43.0
2023-07-18T08:14:16.011Z,43.0
2023-07-18T08:17:16.693Z,43.0
2023-07-18T08:19:17.346Z,42.0
2023-07-18T08:22:17.914Z,42.0
2023-07-18T08:24:18.548Z,42.0
2023-07-18T08:27:19.112Z,43.0
2023-07-18T08:29:19.835Z,42.0
2023-07-18T08:32:20.840Z,42.0
2023-07-18T08:34:21.724Z,40.0
2023-07-18T08:37:22.356Z,42.0
2023-07-18T08:39:22.945Z,41.0
2023-07-18T08:44:23.570Z,41.0
2023-07-18T08:47:24.181Z,41.0
2023-07-18T08:50:25.048Z,40.0
2023-07-18T08:52:25.673Z,39.0
2023-07-18T08:55:26.406Z,39.0
2023-07-18T08:57:27.061Z,40.0
2023-07-18T09:00:27.698Z,40.0
2023-07-18T09:02:28.369Z,41.0
2023-07-18T09:05:29.069Z,41.0
2023-07-18T09:07:29.766Z,41.0
2023-07-18T09:10:30.372Z,41.0
2023-07-18T09:12:31.000Z,41.0
2023-07-18T09:15:31.612Z,41.0
2023-07-18T09:17:32.320Z,43.0
2023-07-18T09:20:33.042Z,42.0
2023-07-18T09:25:33.667Z,42.0
2023-07-18T09:28:34.243Z,42.0
2023-07-18T09:30:34.861Z,41.0
2023-07-18T09:33:35.430Z,41.0
2023-07-18T09:35:36.038Z,41.0
2023-07-18T09:38:36.725Z,41.0
2023-07-18T09:40:39.761Z,41.0
2023-07-18T09:43:40.438Z,41.0
2023-07-18T09:45:41.060Z,40.0
2023-07-18T09:48:45.237Z,40.0
2023-07-18T09:50:46.672Z,42.0
2023-07-18T09:53:47.269Z,42.0
2023-07-18T09:55:47.885Z,41.0
2023-07-18T09:58:48.523Z,41.0
2023-07-18T10:00:50.510Z,40.0
2023-07-18T10:05:51.088Z,42.0
2023-07-18T10:08:51.829Z,41.0
2023-07-18T10:10:52.784Z,42.0
2023-07-18T10:13:53.369Z,41.0
2023-07-18T10:16:54.058Z,41.0
2023-07-18T10:18:54.752Z,41.0
2023-07-18T10:21:55.369Z,41.0
2023-07-18T10:23:55.974Z,41.0
2023-07-18T10:26:56.631Z,41.0
2023-07-18T10:28:57.193Z,41.0
2023-07-18T10:31:57.895Z,41.0
2023-07-18T10:36:58.900Z,41.0
2023-07-18T10:38:59.637Z,41.0
2023-07-18T10:42:00.227Z,40.0
2023-07-18T10:47:00.891Z,40.0
2023-07-18T10:49:01.598Z,41.0
2023-07-18T10:52:02.204Z,41.0
2023-07-18T10:54:02.784Z,40.0
2023-07-18T10:57:03.422Z,40.0
2023-07-18T11:00:04.043Z,42.0
2023-07-18T11:02:04.703Z,40.0
2023-07-18T11:05:05.294Z,41.0
2023-07-18T11:07:05.884Z,41.0
2023-07-18T11:10:06.463Z,41.0
2023-07-18T11:12:07.098Z,40.0
2023-07-18T11:15:07.668Z,41.0
2023-07-18T11:17:08.388Z,39.0
2023-07-18T11:20:09.110Z,40.0
2023-07-18T11:22:09.720Z,40.0
2023-07-18T11:27:10.665Z,40.0
2023-07-18T11:30:11.542Z,40.0
2023-07-18T11:33:12.216Z,41.0
2023-07-18T11:35:12.833Z,41.0
2023-07-18T11:38:13.538Z,41.0
2023-07-18T11:40:14.247Z,41.0
2023-07-18T11:43:14.961Z,42.0
2023-07-18T11:45:15.534Z,42.0
2023-07-18T11:48:17.179Z,42.0
2023-07-18T11:50:18.010Z,42.0
2023-07-18T11:53:18.621Z,43.0
2023-07-18T11:55:19.245Z,43.0
2023-07-18T11:58:19.858Z,44.0
2023-07-18T12:00:20.421Z,43.0
2023-07-18T12:03:21.180Z,43.0
2023-07-18T12:08:26.070Z,42.0
2023-07-18T12:10:26.853Z,42.0
2023-07-18T12:13:27.513Z,42.0
2023-07-18T12:15:28.527Z,42.0
2023-07-18T12:18:29.124Z,44.0
2023-07-18T12:20:29.717Z,42.0
2023-07-18T12:23:30.345Z,42.0
2023-07-18T12:26:31.028Z,44.0
2023-07-18T12:28:31.632Z,44.0
2023-07-18T12:31:32.294Z,44.0
2023-07-18T12:33:33.027Z,44.0
2023-07-18T12:36:33.734Z,45.0
2023-07-18T12:38:34.362Z,46.0
2023-07-18T12:41:34.946Z,46.0
2023-07-18T12:43:35.556Z,47.0
2023-07-18T12:48:36.223Z,48.0
2023-07-18T12:51:36.922Z,47.0
2023-07-18T12:53:37.559Z,48.0
2023-07-18T12:56:38.150Z,48.0
2023-07-18T12:59:38.806Z,48.0
2023-07-18T13:01:39.510Z,48.0
2023-07-18T13:04:40.187Z,48.0
2023-07-18T13:06:40.792Z,48.0
2023-07-18T13:09:41.384Z,48.0
2023-07-18T13:11:41.970Z,48.0
2023-07-18T13:14:42.607Z,48.0
2023-07-18T13:16:43.371Z,47.0
2023-07-18T13:19:44.074Z,48.0
2023-07-18T13:21:44.751Z,47.0
2023-07-18T13:24:45.452Z,47.0
2023-07-18T13:29:46.102Z,46.0
2023-07-18T13:31:46.770Z,46.0
2023-07-18T13:34:47.459Z,46.0
2023-07-18T13:36:48.036Z,46.0
2023-07-18T13:39:48.711Z,45.0
2023-07-18T13:41:49.316Z,44.0
2023-07-18T13:44:49.963Z,43.0
2023-07-18T13:46:52.594Z,41.0
2023-07-18T13:49:53.322Z,42.0
2023-07-18T13:52:53.907Z,43.0
2023-07-18T13:54:54.517Z,44.0
2023-07-18T13:57:55.103Z,45.0
2023-07-18T13:59:55.770Z,44.0
2023-07-18T14:02:56.452Z,44.0
2023-07-18T14:04:57.167Z,43.0
2023-07-18T14:09:57.808Z,43.0
2023-07-18T14:12:58.387Z,42.0
2023-07-18T14:14:59.004Z,43.0
2023-07-18T14:17:59.645Z,45.0
2023-07-18T14:20:00.382Z,45.0
2023-07-18T14:23:01.632Z,46.0
2023-07-18T14:25:02.336Z,46.0
2023-07-18T14:28:02.936Z,45.0
2023-07-18T14:30:03.537Z,45.0
2023-07-18T14:33:06.988Z,45.0
2023-07-18T14:35:07.671Z,46.0
2023-07-18T14:38:08.238Z,46.0
2023-07-18T14:41:08.877Z,46.0
2023-07-18T14:43:09.535Z,46.0
2023-07-18T14:46:10.732Z,47.0
2023-07-18T14:51:11.392Z,46.0
2023-07-18T14:53:12.014Z,44.0
2023-07-18T14:56:12.756Z,45.0
2023-07-18T14:58:13.372Z,44.0
2023-07-18T15:01:14.054Z,45.0
2023-07-18T15:03:14.835Z,45.0
2023-07-18T15:06:15.621Z,45.0
2023-07-18T15:08:16.286Z,45.0
2023-07-18T15:11:16.885Z,45.0
2023-07-18T15:13:17.504Z,45.0
2023-07-18T15:16:18.974Z,45.0
2023-07-18T15:19:20.310Z,44.0
2023-07-18T15:21:20.939Z,46.0
2023-07-18T15:24:21.497Z,46.0
2023-07-18T15:26:22.929Z,46.0
2023-07-18T15:31:23.990Z,46.0
2023-07-18T15:34:24.789Z,46.0
2023-07-18T15:36:25.396Z,46.0
2023-07-18T15:39:26.006Z,46.0
2023-07-18T15:41:26.604Z,47.0
2023-07-18T15:44:27.203Z,47.0
2023-07-18T15:46:27.930Z,47.0
2023-07-18T15:49:28.604Z,46.0
2023-07-18T15:52:29.248Z,47.0
2023-07-18T15:54:29.796Z,47.0
2023-07-18T15:57:30.377Z,46.0
2023-07-18T15:59:30.998Z,45.0
2023-07-18T16:02:31.827Z,46.0
2023-07-18T16:04:35.243Z,46.0
2023-07-18T16:07:35.929Z,46.0
2023-07-18T16:12:36.495Z,46.0
2023-07-18T16:14:37.080Z,45.0
2023-07-18T16:17:37.812Z,45.0
2023-07-18T16:22:38.611Z,44.0
2023-07-18T16:24:39.270Z,44.0
2023-07-18T16:27:39.852Z,43.0
2023-07-18T16:29:40.433Z,43.0
2023-07-18T16:32:41.162Z,42.0
2023-07-18T16:34:41.922Z,42.0
2023-07-18T16:37:42.536Z,44.0
2023-07-18T16:39:43.128Z,44.0
2023-07-18T16:42:43.732Z,44.0
2023-07-18T16:45:44.308Z,45.0
2023-07-18T16:47:44.974Z,45.0
2023-07-18T16:52:45.630Z,45.0
2023-07-18T16:55:46.228Z,44.0
2023-07-18T16:57:46.854Z,45.0
2023-07-18T17:00:47.530Z,44.0
2023-07-18T17:02:48.435Z,44.0
2023-07-18T17:05:49.262Z,44.0
2023-07-18T17:07:49.866Z,43.0
2023-07-18T17:10:50.513Z,44.0
2023-07-18T17:12:51.188Z,44.0
2023-07-18T17:15:52.330Z,44.0
2023-07-18T17:17:54.242Z,45.0
2023-07-18T17:20:54.917Z,45.0
2023-07-18T17:23:55.501Z,45.0
2023-07-18T17:25:59.777Z,46.0
2023-07-18T17:28:01.488Z,45.0
2023-07-18T17:34:02.184Z,46.0
2023-07-18T17:36:02.739Z,46.0
2023-07-18T17:39:03.400Z,47.0
2023-07-18T17:41:04.045Z,47.0
2023-07-18T17:44:04.646Z,48.0
2023-07-18T17:46:05.483Z,48.0
2023-07-18T17:49:06.164Z,48.0
2023-07-18T17:51:06.763Z,48.0
2023-07-18T17:54:07.388Z,49.0
2023-07-18T17:56:08.004Z,49.0
2023-07-18T17:59:08.612Z,49.0
2023-07-18T18:01:09.223Z,49.0
2023-07-18T18:04:09.950Z,49.0
2023-07-18T18:06:10.607Z,49.0
2023-07-18T18:09:11.209Z,49.0
2023-07-18T18:14:11.833Z,49.0
2023-07-18T18:17:12.405Z,49.0
2023-07-18T18:19:12.993Z,49.0
2023-07-18T18:22:13.575Z,49.0
2023-07-18T18:24:14.457Z,49.0
2023-07-18T18:27:15.026Z,49.0
2023-07-18T18:29:15.594Z,49.0
2023-07-18T18:32:16.174Z,49.0
2023-07-18T18:34:16.806Z,48.0
2023-07-18T18:37:17.408Z,48.0
2023-07-18T18:39:18.080Z,48.0
2023-07-18T18:42:18.657Z,48.0
2023-07-18T18:45:19.262Z,47.0
2023-07-18T18:47:19.849Z,47.0
2023-07-18T18:50:20.448Z,46.0
2023-07-18T18:55:25.426Z,46.0
2023-07-18T18:57:31.024Z,46.0
2023-07-18T19:00:31.632Z,46.0
2023-07-18T19:02:32.381Z,44.0
2023-07-18T19:05:33.230Z,44.0
2023-07-18T19:07:33.815Z,44.0
2023-07-18T19:10:34.454Z,42.0
2023-07-18T19:12:35.060Z,42.0
2023-07-18T19:15:35.716Z,42.0
2023-07-18T19:17:36.527Z,43.0
2023-07-18T19:20:37.558Z,41.0
2023-07-18T19:22:38.201Z,38.0
2023-07-18T19:25:38.898Z,35.0
2023-07-18T19:27:39.553Z,32.0
2023-07-18T19:30:40.236Z,31.0
2023-07-18T19:35:41.266Z,30.0
2023-07-18T19:37:41.864Z,30.0
2023-07-18T19:40:42.477Z,27.0
2023-07-18T19:43:43.052Z,27.0
2023-07-18T19:45:43.641Z,24.0
2023-07-18T19:48:44.272Z,24.0
2023-07-18T19:50:44.849Z,24.0
2023-07-18T19:53:45.444Z,21.0
2023-07-18T19:55:46.090Z,18.0
2023-07-18T19:58:46.669Z,16.0
2023-07-18T20:00:47.285Z,15.0
2023-07-18T20:04:00.346Z,14.0
2023-07-18T20:06:01.329Z,17.0
2023-07-18T20:09:02.054Z,15.0
2023-07-18T20:11:02.629Z,12.0
2023-07-18T20:16:03.271Z,10.0
2023-07-18T20:19:03.933Z,1.0
2023-07-18T20:21:04.653Z,0.0
2023-07-18T20:24:05.254Z,0.0
2023-07-18T20:26:05.876Z,0.0
2023-07-18T20:29:06.454Z,0.0
2023-07-18T20:31:07.152Z,0.0
2023-07-18T20:34:07.795Z,0.0
2023-07-18T20:36:08.388Z,0.0
2023-07-18T20:39:08.982Z,0.0
2023-07-18T20:41:10.598Z,0.0
2023-07-18T20:44:11.252Z,0.0
2023-07-18T20:46:12.121Z,0.0
2023-07-18T20:49:12.896Z,0.0
2023-07-18T20:52:13.541Z,0.0
2023-07-18T20:57:14.121Z,0.0
2023-07-18T20:59:14.708Z,0.0
2023-07-18T21:02:15.325Z,0.0
2023-07-18T21:04:15.994Z,0.0
2023-07-18T21:07:16.774Z,0.0
2023-07-18T21:09:17.361Z,0.0
2023-07-18T21:12:17.980Z,0.0
2023-07-18T21:14:18.578Z,0.0
2023-07-18T21:17:19.311Z,0.0
2023-07-18T21:19:19.983Z,0.0
2023-07-18T21:22:20.564Z,0.0
2023-07-18T21:25:21.165Z,0.0
2023-07-18T21:27:21.788Z,0.0
2023-07-18T21:30:22.426Z,0.0
2023-07-18T21:32:23.138Z,0.0
2023-07-18T21:37:23.816Z,0.0
2023-07-18T21:40:24.416Z,0.0
2023-07-18T21:42:25.004Z,0.0
2023-07-18T21:45:25.624Z,0.0
2023-07-18T21:47:26.289Z,0.0
2023-07-18T21:50:27.190Z,0.0
2023-07-18T21:52:27.888Z,0.0
2023-07-18T21:55:28.467Z,0.0
2023-07-18T21:58:29.101Z,0.0
2023-07-18T22:00:29.731Z,0.0
2023-07-18T22:03:30.403Z,0.0
2023-07-18T22:05:31.004Z,0.0
2023-07-18T22:08:31.630Z,0.0
2023-07-18T22:10:32.210Z,0.0
2023-07-18T22:13:32.842Z,0.0
2023-07-18T22:18:33.635Z,0.0
2023-07-18T22:20:34.417Z,0.0
2023-07-18T22:23:35.028Z,0.0
2023-07-18T22:25:35.630Z,0.0
2023-07-18T22:28:36.216Z,0.0
2023-07-18T22:30:36.850Z,0.0
2023-07-18T22:33:37.475Z,0.0
2023-07-18T22:35:38.087Z,0.0
2023-07-18T22:38:38.830Z,0.0
2023-07-18T22:43:39.562Z,0.0
2023-07-18T22:46:40.247Z,0.0
2023-07-18T22:48:40.913Z,0.0
2023-07-18T22:51:41.508Z,0.0
2023-07-18T22:53:42.108Z,0.0
2023-07-18T22:58:42.795Z,99.0
2023-07-18T23:01:43.370Z,99.0
2023-07-18T23:03:44.055Z,99.0
2023-07-18T23:06:44.830Z,99.0
2023-07-18T23:08:45.426Z,99.0
2023-07-18T23:11:45.999Z,99.0
2023-07-18T23:13:46.588Z,99.0
2023-07-18T23:16:47.276Z,99.0
2023-07-18T23:18:47.958Z,99.0
2023-07-18T23:21:48.560Z,99.0
2023-07-18T23:23:49.189Z,99.0
2023-07-18T23:26:49.776Z,99.0
2023-07-18T23:29:50.383Z,99.0
2023-07-18T23:31:50.999Z,99.0
2023-07-18T23:34:51.595Z,99.0
2023-07-18T23:39:52.279Z,99.0
2023-07-18T23:41:52.904Z,99.0
2023-07-18T23:44:53.490Z,99.0
2023-07-18T23:46:54.096Z,99.0
2023-07-18T23:49:54.704Z,99.0
2023-07-18T23:51:55.286Z,99.0
2023-07-18T23:54:55.923Z,99.0
2023-07-18T23:56:56.492Z,99.0
2023-07-18T23:59:57.135Z,99.0
